MONTICARGO VIRTUAL AIRLINES



 METAR AND TAF INFORMATION
METAR FOR LPPR
ADDS - METARS form results

(0208 UTC 29 November 2022)
Data provider http://aviationweather.gov/metar/data/
 
METAR text: LPPR 290200Z 11005KT CAVOK 09/08 Q1026
Conditions at: LPPR (PORTO/PEDRAS RUB, PT) observed 0200 UTC 29 November 2022
Temperature: 9.0°C (48°F)
Dewpoint: 8.0°C (46°F) [RH = 93%]
Pressure (altimeter): 30.30 inches Hg (1026.0 mb)
Winds: from the ESE (110 degrees) at 6 MPH (5 knots; 2.6 m/s)
Visibility: 6 or more miles (10+ km)
Ceiling: ceiling and visibility are OK
Clouds: unknown
Weather: no significant weather observed at this time

METAR text: LPPR 290130Z 11004KT 070V140 9999 FEW046 09/08 Q1026
Conditions at: LPPR (PORTO/PEDRAS RUB, PT) observed 0130 UTC 29 November 2022
Temperature: 9.0°C (48°F)
Dewpoint: 8.0°C (46°F) [RH = 93%]
Pressure (altimeter): 30.30 inches Hg (1026.0 mb)
Winds: from the ESE (110 degrees) at 5 MPH (4 knots; 2.1 m/s)
Visibility: 6 or more miles (10+ km)
Ceiling: at least 12,000 feet AGL
Clouds: few clouds at 4600 feet AGL
Weather: no significant weather observed at this time

Forecast for: LPPR (PORTO/PEDRAS RUB, PT)
Text: TAF LPPR 282300Z 2900/2924 09005KT 9999 FEW012
Forecast period: 0000 to 1200 UTC 29 November 2022
Forecast type: FROM: standard forecast or significant change
Winds: from the E (90 degrees) at 6 MPH (5 knots; 2.6 m/s)
Visibility: 6 or more miles (10+ km)
Ceiling: at least 12,000 feet AGL
Clouds: few clouds at 1200 feet AGL
Weather: no significant weather forecast for this period
Text: PROB30
Forecast period: 0000 to 0800 UTC 29 November 2022
Forecast type: TEMPORARY: The following changes expected for less than half the time period
Visibility: 1.24 miles (2.00 km)
Ceiling: at least 12,000 feet AGL
Clouds: scattered clouds at 200 feet AGL
Weather: BCFG BR  (patches of fog, mist)
Text: TEMPO 2900/2908 2000 BCFG BR SCT002
Forecast period: 1200 to 1900 UTC 29 November 2022
Forecast type: BECOMING: Conditions expected to become as follows by 1400 UTC 29 November 2022
Winds: from the WNW (300 degrees) at 8 MPH (7 knots; 3.6 m/s)
Visibility: 6 or more miles (10+ km)
Ceiling: at least 12,000 feet AGL
Clouds: scattered clouds at 3000 feet AGL
Weather: no significant weather forecast for this period
Text: BECMG 2912/2914 30007KT SCT030
Forecast period: 1900 UTC 29 November 2022 to 0000 UTC 30 November 2022
Forecast type: BECOMING: Conditions expected to become as follows by 2100 UTC 29 November 2022
Winds: from the E (80 degrees) at 6 MPH (5 knots; 2.6 m/s)
Visibility: 6 or more miles (10+ km)
Ceiling: at least 12,000 feet AGL
Clouds: scattered clouds at 3000 feet AGL
Weather: no significant weather forecast for this period

 AIRPORT MAP

 RUNWAY INFORMATION